createdAt,value
2022-10-17T00:05:46.677Z,981.43
2022-10-17T00:12:15.718Z,981.41
2022-10-17T00:18:39.808Z,981.39
2022-10-17T00:25:07.759Z,981.44
2022-10-17T00:31:38.859Z,981.44
2022-10-17T00:38:11.133Z,981.46
2022-10-17T00:44:40.062Z,981.4
2022-10-17T00:51:23.205Z,981.38
2022-10-17T00:58:04.829Z,981.38
2022-10-17T01:04:42.926Z,981.41
2022-10-17T01:11:22.831Z,981.46
2022-10-17T01:18:24.413Z,981.41
2022-10-17T01:25:38.685Z,981.47
2022-10-17T01:32:44.838Z,981.53
2022-10-17T01:39:48.889Z,981.57
2022-10-17T01:46:59.925Z,981.54
2022-10-17T01:53:59.345Z,981.41
2022-10-17T02:01:06.007Z,981.39
2022-10-17T02:07:46.103Z,981.38
2022-10-17T02:14:43.412Z,981.39
2022-10-17T02:21:55.387Z,981.4
2022-10-17T02:29:14.857Z,981.43
2022-10-17T02:36:19.754Z,981.39
2022-10-17T02:43:03.689Z,981.37
2022-10-17T02:49:53.849Z,981.36
2022-10-17T02:56:57.679Z,981.36
2022-10-17T03:03:53.219Z,981.41
2022-10-17T03:10:32.414Z,981.43
2022-10-17T03:17:04.871Z,981.38
2022-10-17T03:23:27.815Z,981.45
2022-10-17T03:29:58.917Z,981.51
2022-10-17T03:36:42.861Z,981.54
2022-10-17T03:43:16.905Z,981.52
2022-10-17T03:49:37.247Z,981.64
2022-10-17T03:56:10.302Z,981.65
2022-10-17T04:02:34.437Z,981.72
2022-10-17T04:09:02.149Z,981.81
2022-10-17T04:15:34.113Z,981.9
2022-10-17T04:22:06.045Z,981.79
2022-10-17T04:28:34.227Z,981.76
2022-10-17T04:34:57.318Z,981.78
2022-10-17T04:41:37.854Z,981.89
2022-10-17T04:48:17.561Z,981.83
2022-10-17T04:54:48.921Z,981.75
2022-10-17T05:01:28.175Z,981.85
2022-10-17T05:07:59.859Z,981.79
2022-10-17T05:14:46.981Z,981.71
2022-10-17T05:21:12.139Z,981.72
2022-10-17T05:27:41.919Z,981.67
2022-10-17T05:34:16.229Z,981.75
2022-10-17T05:40:48.959Z,981.79
2022-10-17T05:47:25.346Z,981.83
2022-10-17T05:53:51.317Z,981.88
2022-10-17T06:00:34.884Z,981.91
2022-10-17T06:07:04.974Z,981.83
2022-10-17T06:13:50.127Z,981.98
2022-10-17T06:20:22.881Z,982.04
2022-10-17T06:27:01.397Z,982
2022-10-17T06:33:30.961Z,982.14
2022-10-17T06:40:02.377Z,982.3
2022-10-17T06:46:32.170Z,982.43
2022-10-17T06:53:02.894Z,982.54
2022-10-17T06:59:37.355Z,982.54
2022-10-17T07:06:07.123Z,982.62
2022-10-17T07:12:38.411Z,982.72
2022-10-17T07:19:14.975Z,982.73
2022-10-17T07:25:47.466Z,982.8
2022-10-17T07:32:11.175Z,982.81
2022-10-17T07:38:38.727Z,982.97
2022-10-17T07:45:13.797Z,982.9
2022-10-17T07:51:55.012Z,982.92
2022-10-17T07:58:24.658Z,982.95
2022-10-17T08:05:00.401Z,982.98
2022-10-17T08:11:45.025Z,983.07
2022-10-17T08:18:18.995Z,983.12
2022-10-17T08:25:02.610Z,983.09
2022-10-17T08:31:41.354Z,983.13
2022-10-17T08:38:23.277Z,983.09
2022-10-17T08:45:35.513Z,983.18
2022-10-17T08:52:42.202Z,983.15
2022-10-17T08:59:39.505Z,983.16
2022-10-17T09:06:40.716Z,983.18
2022-10-17T09:13:50.695Z,983.24
2022-10-17T09:21:01.039Z,983.32
2022-10-17T09:28:11.150Z,983.41
2022-10-17T09:35:10.262Z,983.53
2022-10-17T09:42:17.105Z,983.51
2022-10-17T09:49:26.204Z,983.61
2022-10-17T09:56:31.513Z,983.69
2022-10-17T10:03:27.438Z,983.71
2022-10-17T10:10:15.036Z,983.77
2022-10-17T10:17:22.603Z,983.85
2022-10-17T10:24:21.097Z,983.94
2022-10-17T10:31:17.241Z,984.04
2022-10-17T10:38:09.132Z,984.11
2022-10-17T10:45:46.777Z,984.13
2022-10-17T10:52:43.036Z,984.19
2022-10-17T10:59:45.224Z,984.27
2022-10-17T11:06:59.255Z,984.19
2022-10-17T11:13:55.049Z,984.3
2022-10-17T11:20:57.662Z,984.31
2022-10-17T11:28:06.343Z,984.39
2022-10-17T11:35:04.561Z,984.37
2022-10-17T11:42:19.018Z,984.47
2022-10-17T11:49:42.269Z,984.44
2022-10-17T11:56:49.742Z,984.4
2022-10-17T12:04:06.481Z,984.39
2022-10-17T12:11:13.524Z,984.44
2022-10-17T12:18:34.345Z,984.53
2022-10-17T12:26:22.991Z,984.45
2022-10-17T12:34:21.649Z,984.42
2022-10-17T12:42:13.381Z,984.44
2022-10-17T12:50:01.869Z,984.45
2022-10-17T12:57:42.910Z,984.46
2022-10-17T13:05:29.201Z,984.44
2022-10-17T13:13:08.610Z,984.56
2022-10-17T13:20:48.692Z,984.55
2022-10-17T13:28:19.737Z,984.54
2022-10-17T13:35:59.794Z,984.55
2022-10-17T13:42:40.403Z,984.57
2022-10-17T13:49:49.541Z,984.69
2022-10-17T13:56:32.461Z,984.7
2022-10-17T14:03:48.454Z,984.74
2022-10-17T14:10:50.218Z,984.74
2022-10-17T14:17:48.061Z,984.73
2022-10-17T14:25:07.678Z,984.7
2022-10-17T14:33:05.918Z,984.67
2022-10-17T14:40:36.245Z,984.76
2022-10-17T14:48:18.811Z,984.83
2022-10-17T14:56:15.545Z,984.77
2022-10-17T15:04:10.483Z,984.87
2022-10-17T15:12:00.500Z,984.99
2022-10-17T15:19:43.861Z,985.02
2022-10-17T15:27:29.527Z,985.12
2022-10-17T15:35:16.888Z,985.23
2022-10-17T15:43:01.254Z,985.22
2022-10-17T15:50:42.108Z,985.26
2022-10-17T15:58:26.130Z,985.2
2022-10-17T16:06:25.223Z,985.27
2022-10-17T16:14:18.304Z,985.32
2022-10-17T16:22:04.270Z,985.34
2022-10-17T16:30:00.634Z,985.39
2022-10-17T16:38:31.413Z,985.48
2022-10-17T16:46:29.247Z,985.49
2022-10-17T16:54:29.232Z,985.51
2022-10-17T17:02:21.982Z,985.6
2022-10-17T17:10:07.665Z,985.75
2022-10-17T17:17:59.449Z,985.85
2022-10-17T17:25:46.539Z,985.9
2022-10-17T17:33:31.546Z,985.88
2022-10-17T17:41:15.126Z,986.06
2022-10-17T17:49:20.742Z,986.04
2022-10-17T17:56:59.766Z,986.05
2022-10-17T18:04:44.747Z,986.03
2022-10-17T18:12:10.504Z,986.11
2022-10-17T18:19:54.095Z,986.17
2022-10-17T18:27:30.743Z,986.21
2022-10-17T18:35:12.590Z,986.26
2022-10-17T18:42:52.172Z,986.25
2022-10-17T18:50:39.897Z,986.27
2022-10-17T18:58:21.719Z,986.23
2022-10-17T19:06:04.747Z,986.27
2022-10-17T19:13:43.117Z,986.3
2022-10-17T19:21:43.228Z,986.25
2022-10-17T19:29:17.961Z,986.2
2022-10-17T19:36:52.282Z,986.24
2022-10-17T19:44:26.811Z,986.15
2022-10-17T19:52:12.871Z,986.24
2022-10-17T20:00:04.155Z,986.17
2022-10-17T20:07:42.888Z,986.15
2022-10-17T20:15:16.833Z,986.19
2022-10-17T20:23:02.335Z,986.16
2022-10-17T20:30:53.672Z,986.29
2022-10-17T20:38:36.953Z,986.41
2022-10-17T20:46:36.670Z,986.43
2022-10-17T20:54:31.354Z,986.39
2022-10-17T21:02:17.363Z,986.46
2022-10-17T21:10:34.218Z,986.43
2022-10-17T21:18:15.541Z,986.5
2022-10-17T21:25:45.716Z,986.44
2022-10-17T21:33:31.463Z,986.45
2022-10-17T21:41:09.855Z,986.42
2022-10-17T21:49:03.953Z,986.33
2022-10-17T21:56:50.227Z,986.22
2022-10-17T22:04:31.793Z,986.32
2022-10-17T22:12:24.746Z,986.27
2022-10-17T22:20:02.771Z,986.32
2022-10-17T22:27:44.239Z,986.23
2022-10-17T22:35:24.012Z,986.11
2022-10-17T22:42:59.435Z,986.07
2022-10-17T22:50:29.428Z,986.17
2022-10-17T22:58:03.447Z,986.14
2022-10-17T23:05:40.131Z,985.87
2022-10-17T23:13:10.931Z,985.92
2022-10-17T23:20:57.420Z,985.85
2022-10-17T23:28:30.465Z,985.9
2022-10-17T23:36:03.699Z,985.76
2022-10-17T23:43:44.138Z,985.71
2022-10-17T23:51:21.468Z,985.7
2022-10-17T23:59:15.324Z,985.63
